Time;durP1;ratioP1;P1;durP2;ratioP2;P2;SDS_P1;SDS_P2;PMS_P1;PMS_P2;Temp;Humidity;BMP_temperature;BMP_pressure;BME280_temperature;BME280_humidity;BME280_pressure;Samples;Min_cycle;Max_cycle;Signal;HPM_P1;HPM_P2
2022/08/13 00:00:59;;;;;;;8.02;3.90;;;21.80;87.80;;;;;;5073896;28;20036;-90
2022/08/13 00:03:26;;;;;;;11.20;4.70;;;21.80;88.30;;;;;;5055885;28;20520;-90
2022/08/13 00:05:52;;;;;;;12.45;6.72;;;21.80;90.10;;;;;;5072797;28;20041;-90
2022/08/13 00:08:22;;;;;;;12.30;5.93;;;21.70;90.20;;;;;;5056004;28;20094;-90
2022/08/13 00:10:48;;;;;;;18.67;12.35;;;21.60;91.70;;;;;;5072778;28;20044;-90
2022/08/13 00:13:16;;;;;;;14.32;6.93;;;21.60;92.60;;;;;;5072237;28;20564;-91
2022/08/13 00:15:43;;;;;;;10.55;6.90;;;21.50;92.90;;;;;;5055686;28;20051;-90
2022/08/13 00:18:16;;;;;;;14.55;8.23;;;21.40;93.60;;;;;;5055755;28;20089;-91
2022/08/13 00:20:50;;;;;;;10.40;4.93;;;21.30;93.90;;;;;;5056177;28;20039;-90
2022/08/13 00:23:19;;;;;;;10.07;4.20;;;21.20;94.00;;;;;;5055683;28;20040;-90
2022/08/13 00:25:47;;;;;;;10.32;4.47;;;21.10;94.90;;;;;;5055856;28;20040;-91
2022/08/13 00:28:17;;;;;;;9.43;4.50;;;21.00;95.30;;;;;;5055711;28;20128;-90
2022/08/13 00:30:44;;;;;;;9.45;3.50;;;21.00;95.00;;;;;;5055323;28;20052;-90
2022/08/13 00:33:12;;;;;;;7.78;3.92;;;21.00;95.70;;;;;;5071994;28;20045;-92
2022/08/13 00:35:42;;;;;;;7.90;3.90;;;20.90;95.80;;;;;;5072349;28;20044;-92
2022/08/13 00:38:09;;;;;;;11.73;4.38;;;20.90;96.10;;;;;;5072373;28;20040;-91
2022/08/13 00:40:35;;;;;;;8.88;3.92;;;20.80;96.00;;;;;;5072040;28;20383;-91
2022/08/13 00:43:03;;;;;;;8.73;4.35;;;20.80;96.10;;;;;;5054966;28;20090;-91
2022/08/13 00:45:30;;;;;;;10.70;4.43;;;20.70;96.20;;;;;;5072473;28;20044;-91
2022/08/13 00:50:42;;;;;;;10.38;4.60;;;20.60;96.20;;;;;;5071973;28;20052;-91
2022/08/13 00:53:17;;;;;;;9.43;4.65;;;20.40;96.70;;;;;;5071463;28;20072;-91
2022/08/13 00:55:48;;;;;;;9.55;4.32;;;20.40;96.50;;;;;;5071866;28;20072;-91
2022/08/13 00:58:18;;;;;;;8.70;4.13;;;20.40;96.70;;;;;;5071524;28;20127;-91
2022/08/13 01:00:50;;;;;;;9.75;4.03;;;20.30;96.70;;;;;;5054997;28;20036;-91
2022/08/13 01:03:17;;;;;;;8.00;3.78;;;20.40;96.50;;;;;;5054957;28;20493;-91
2022/08/13 01:05:44;;;;;;;8.40;3.55;;;20.40;96.40;;;;;;5055024;28;20498;-91
2022/08/13 01:08:11;;;;;;;9.65;3.35;;;20.30;96.60;;;;;;5055430;28;20454;-91
2022/08/13 01:10:38;;;;;;;9.95;3.80;;;20.30;95.30;;;;;;5054653;28;20059;-91
2022/08/13 01:13:09;;;;;;;7.57;3.63;;;20.30;95.20;;;;;;5071090;28;20090;-91
2022/08/13 01:15:36;;;;;;;8.18;3.45;;;20.30;95.40;;;;;;5071301;28;20505;-91
2022/08/13 01:18:02;;;;;;;9.05;3.20;;;20.30;96.00;;;;;;5071137;28;20072;-91
2022/08/13 01:20:31;;;;;;;8.90;3.22;;;20.20;95.70;;;;;;5071139;28;20539;-91
2022/08/13 01:22:58;;;;;;;7.90;3.30;;;20.20;95.50;;;;;;5070843;28;20040;-91
2022/08/13 01:25:25;;;;;;;10.57;3.80;;;20.20;94.80;;;;;;5054721;28;20044;-91
2022/08/13 01:27:52;;;;;;;7.90;3.45;;;20.20;94.70;;;;;;5054822;28;20044;-90
2022/08/13 01:30:20;;;;;;;9.65;3.33;;;20.20;94.60;;;;;;5071406;28;20049;-91
2022/08/13 01:32:47;;;;;;;9.38;3.50;;;20.10;95.30;;;;;;5070682;28;20073;-91
2022/08/13 01:35:15;;;;;;;9.13;3.50;;;20.10;95.20;;;;;;5054356;28;20142;-91
2022/08/13 01:37:42;;;;;;;8.43;4.25;;;20.00;95.50;;;;;;5070739;28;20127;-91
2022/08/13 01:40:10;;;;;;;8.02;3.70;;;19.80;95.20;;;;;;5070896;28;20036;-91
2022/08/13 01:42:42;;;;;;;10.32;3.63;;;19.70;95.20;;;;;;5053864;28;20047;-91
2022/08/13 01:45:09;;;;;;;8.25;4.22;;;19.60;95.50;;;;;;5070360;28;20036;-91
2022/08/13 01:50:29;;;;;;;8.32;3.00;;;19.50;96.50;;;;;;5070753;28;20045;-91
2022/08/13 01:53:01;;;;;;;10.10;3.85;;;19.50;96.60;;;;;;5070565;28;20044;-91
2022/08/13 01:55:48;;;;;;;6.93;2.42;;;19.50;96.90;;;;;;5070761;28;20416;-92
2022/08/13 01:58:19;;;;;;;8.60;3.80;;;19.40;96.90;;;;;;5070754;28;20519;-91
2022/08/13 02:00:48;;;;;;;7.15;3.53;;;19.40;98.10;;;;;;5070210;28;20041;-91
2022/08/13 02:03:16;;;;;;;11.18;4.60;;;19.40;97.80;;;;;;5071213;28;20153;-91
2022/08/13 02:05:42;;;;;;;13.55;4.13;;;19.20;97.60;;;;;;5070384;28;20063;-90
2022/08/13 02:08:11;;;;;;;10.15;4.20;;;19.10;98.00;;;;;;5070381;28;20392;-91
2022/08/13 02:10:42;;;;;;;10.63;4.30;;;19.00;98.10;;;;;;5070454;28;20043;-91
2022/08/13 02:13:13;;;;;;;8.18;3.83;;;19.00;98.00;;;;;;5070427;28;20045;-91
2022/08/13 02:15:41;;;;;;;8.75;3.88;;;18.90;98.50;;;;;;5070532;28;20105;-91
2022/08/13 02:18:12;;;;;;;9.05;3.85;;;18.90;99.10;;;;;;5070354;28;20068;-91
2022/08/13 02:20:38;;;;;;;9.07;4.37;;;18.80;99.50;;;;;;5070060;28;20041;-91
2022/08/13 02:23:06;;;;;;;9.65;3.75;;;18.80;99.50;;;;;;5070114;28;20366;-91
2022/08/13 02:25:33;;;;;;;8.95;3.85;;;18.70;99.70;;;;;;5070395;28;20538;-91
2022/08/13 02:27:59;;;;;;;6.93;3.35;;;18.70;99.90;;;;;;5070080;28;20041;-91
2022/08/13 02:30:27;;;;;;;9.73;3.60;;;18.70;99.90;;;;;;5053337;28;20082;-91
2022/08/13 02:32:53;;;;;;;9.00;3.50;;;18.70;99.90;;;;;;5069742;28;20082;-91
2022/08/13 02:35:19;;;;;;;7.72;3.28;;;18.70;99.90;;;;;;5053385;28;20155;-90
2022/08/13 02:37:47;;;;;;;7.55;3.55;;;18.70;99.90;;;;;;5053649;28;20565;-91
2022/08/13 02:42:59;;;;;;;7.07;3.17;;;18.70;99.80;;;;;;5069728;28;20123;-91
2022/08/13 02:45:26;;;;;;;6.95;3.10;;;18.70;99.90;;;;;;5069731;28;20524;-90
2022/08/13 02:47:54;;;;;;;7.72;2.80;;;18.70;99.70;;;;;;5069763;28;20086;-90
2022/08/13 02:50:20;;;;;;;7.43;3.22;;;18.70;98.80;;;;;;5053639;28;20131;-90
2022/08/13 02:52:50;;;;;;;7.97;3.80;;;18.70;98.80;;;;;;5069480;28;20086;-91
2022/08/13 02:55:15;;;;;;;7.15;3.55;;;18.70;99.90;;;;;;5053416;28;20033;-91
2022/08/13 02:57:41;;;;;;;8.00;3.53;;;18.60;99.90;;;;;;5069993;28;20128;-91
2022/08/13 03:00:08;;;;;;;8.63;3.45;;;18.60;99.90;;;;;;5052711;28;20486;-91
2022/08/13 03:02:38;;;;;;;7.95;3.75;;;18.60;99.90;;;;;;5052592;28;20516;-91
2022/08/13 03:05:04;;;;;;;9.55;3.72;;;18.60;99.90;;;;;;5053121;28;20043;-91
2022/08/13 03:07:30;;;;;;;9.75;3.95;;;18.50;99.90;;;;;;5069777;28;20040;-90
2022/08/13 03:09:56;;;;;;;8.85;3.78;;;18.50;99.90;;;;;;5069773;28;20047;-90
2022/08/13 03:12:22;;;;;;;9.77;3.83;;;18.40;99.90;;;;;;5052528;28;20111;-91
2022/08/13 03:14:49;;;;;;;10.10;3.90;;;18.40;99.90;;;;;;5069343;28;20126;-91
2022/08/13 03:17:15;;;;;;;9.02;3.90;;;18.30;99.90;;;;;;5069584;28;20395;-91
2022/08/13 03:19:41;;;;;;;8.55;4.00;;;18.20;99.90;;;;;;5052754;28;20052;-90
2022/08/13 03:22:06;;;;;;;8.27;4.22;;;18.20;99.90;;;;;;5052682;28;20029;-91
2022/08/13 03:24:33;;;;;;;9.27;4.10;;;18.10;99.90;;;;;;5069442;28;20493;-91
2022/08/13 03:27:01;;;;;;;9.20;4.07;;;18.10;99.90;;;;;;5069679;28;20041;-91
2022/08/13 03:29:28;;;;;;;10.68;4.28;;;18.10;99.90;;;;;;5052463;28;20040;-91
2022/08/13 03:31:54;;;;;;;9.30;4.03;;;18.00;99.90;;;;;;5069181;28;20539;-91
2022/08/13 03:34:20;;;;;;;10.77;3.90;;;18.00;99.90;;;;;;5072248;28;20044;-91
2022/08/13 03:36:46;;;;;;;8.68;4.05;;;18.00;99.90;;;;;;5073352;28;20036;-91
2022/08/13 03:39:12;;;;;;;8.95;4.03;;;17.90;99.90;;;;;;5056537;28;20051;-91
2022/08/13 03:41:38;;;;;;;9.23;3.90;;;17.90;99.90;;;;;;5072692;28;20036;-91
2022/08/13 03:44:05;;;;;;;8.93;4.03;;;17.80;99.90;;;;;;5072869;28;20036;-91
2022/08/13 03:46:32;;;;;;;9.25;4.38;;;17.70;99.90;;;;;;5073017;28;20094;-90
2022/08/13 03:48:58;;;;;;;11.73;4.32;;;17.60;99.90;;;;;;5056230;28;20045;-91
2022/08/13 03:51:24;;;;;;;8.60;3.90;;;17.60;99.90;;;;;;5055973;28;20037;-91
2022/08/13 03:53:54;;;;;;;7.70;3.88;;;17.50;99.90;;;;;;5056232;28;20109;-90
2022/08/13 03:56:22;;;;;;;11.80;4.40;;;17.50;99.90;;;;;;5056203;28;20544;-91
2022/08/13 03:58:49;;;;;;;8.57;3.80;;;17.50;99.90;;;;;;5055479;28;20178;-91
2022/08/13 04:01:17;;;;;;;8.95;4.32;;;17.50;99.90;;;;;;5055681;28;20127;-91
2022/08/13 04:03:43;;;;;;;9.25;3.50;;;17.40;99.90;;;;;;5072416;28;20040;-91
2022/08/13 04:06:21;;;;;;;8.20;4.20;;;17.40;99.90;;;;;;5072430;28;20041;-91
2022/08/13 04:08:48;;;;;;;8.57;3.70;;;17.40;99.90;;;;;;5055374;28;20039;-91
2022/08/13 04:11:19;;;;;;;8.77;4.78;;;17.40;99.90;;;;;;5072482;28;20044;-91
2022/08/13 04:13:45;;;;;;;9.35;4.25;;;17.30;99.90;;;;;;5072438;28;20529;-90
2022/08/13 04:16:25;;;;;;;8.25;4.03;;;17.30;99.90;;;;;;5055298;28;20055;-91
2022/08/13 04:18:52;;;;;;;9.52;4.28;;;17.30;99.90;;;;;;5055588;28;20438;-91
2022/08/13 04:21:19;;;;;;;8.32;4.50;;;17.20;99.90;;;;;;5071882;28;20033;-91
2022/08/13 04:23:46;;;;;;;8.77;4.18;;;17.20;99.90;;;;;;5072283;28;20390;-91
2022/08/13 04:26:15;;;;;;;8.82;3.92;;;17.10;99.90;;;;;;5072190;28;20095;-91
2022/08/13 04:28:42;;;;;;;11.15;4.13;;;17.20;99.90;;;;;;5072233;28;20037;-91
2022/08/13 04:31:11;;;;;;;8.05;3.90;;;17.10;99.90;;;;;;5055320;28;20045;-91
2022/08/13 04:33:38;;;;;;;7.40;3.40;;;17.10;99.90;;;;;;5055599;28;20040;-91
2022/08/13 04:36:05;;;;;;;7.90;3.60;;;17.00;99.90;;;;;;5055487;28;20040;-91
2022/08/13 04:38:31;;;;;;;8.07;3.90;;;17.00;99.90;;;;;;5071896;28;20079;-91
2022/08/13 04:40:57;;;;;;;7.03;3.28;;;17.00;99.90;;;;;;5071766;28;20036;-91
2022/08/13 04:43:22;;;;;;;10.55;4.40;;;17.00;99.90;;;;;;5055091;28;20032;-91
2022/08/13 04:45:48;;;;;;;8.40;3.67;;;17.10;99.90;;;;;;5071498;28;20044;-91
2022/08/13 04:48:15;;;;;;;9.23;3.75;;;17.10;99.90;;;;;;5071731;28;20090;-91
2022/08/13 04:50:44;;;;;;;8.35;3.60;;;17.10;99.90;;;;;;5054719;28;20102;-91
2022/08/13 04:53:22;;;;;;;9.18;3.70;;;17.10;99.90;;;;;;5071542;28;20033;-90
2022/08/13 04:55:48;;;;;;;7.97;3.60;;;17.10;99.90;;;;;;5072158;28;20122;-91
2022/08/13 04:58:13;;;;;;;6.45;3.53;;;17.10;99.90;;;;;;5055177;28;20656;-91
2022/08/13 05:00:39;;;;;;;7.05;3.47;;;17.10;99.90;;;;;;5054644;28;20029;-91
2022/08/13 05:03:19;;;;;;;7.97;3.63;;;17.10;99.90;;;;;;5071325;28;20482;-92
2022/08/13 05:05:47;;;;;;;8.20;3.72;;;17.10;99.90;;;;;;5071516;28;20653;-91
2022/08/13 05:08:15;;;;;;;8.02;3.53;;;17.10;99.90;;;;;;5055009;28;20039;-91
2022/08/13 05:10:42;;;;;;;10.18;3.47;;;17.10;99.90;;;;;;5071174;28;20045;-90
2022/08/13 05:13:21;;;;;;;11.02;3.75;;;17.20;99.90;;;;;;5071059;28;20072;-90
2022/08/13 05:15:46;;;;;;;9.60;3.70;;;17.20;99.90;;;;;;5054783;28;20695;-91
2022/08/13 05:18:12;;;;;;;8.18;3.15;;;17.30;99.90;;;;;;5054701;28;20438;-91
2022/08/13 05:20:39;;;;;;;7.82;3.28;;;17.30;99.90;;;;;;5070909;28;20032;-91
2022/08/13 05:23:13;;;;;;;8.30;3.55;;;17.40;99.90;;;;;;5054026;28;20058;-91
2022/08/13 05:25:40;;;;;;;7.50;3.47;;;17.40;99.90;;;;;;5054920;28;20393;-91
2022/08/13 05:28:08;;;;;;;10.23;3.38;;;17.50;99.90;;;;;;5070777;28;20033;-91
2022/08/13 05:30:38;;;;;;;7.43;3.30;;;17.60;99.90;;;;;;5070810;28;20072;-91
2022/08/13 05:33:16;;;;;;;7.50;3.40;;;17.60;99.90;;;;;;5054202;28;20041;-91
2022/08/13 05:35:48;;;;;;;9.82;3.60;;;17.70;99.90;;;;;;5071222;28;20491;-91
2022/08/13 05:38:15;;;;;;;9.52;3.10;;;17.70;99.90;;;;;;5054433;28;20531;-92
2022/08/13 05:40:42;;;;;;;8.13;3.45;;;17.80;99.90;;;;;;5070687;28;20569;-91
2022/08/13 05:43:13;;;;;;;9.27;3.22;;;17.90;99.90;;;;;;5053700;28;20046;-92
2022/08/13 05:45:41;;;;;;;7.70;3.50;;;18.00;99.90;;;;;;5070705;28;20516;-91
2022/08/13 05:48:07;;;;;;;8.15;3.60;;;18.00;99.90;;;;;;5070188;28;20563;-91
2022/08/13 05:50:33;;;;;;;8.85;3.60;;;18.10;99.90;;;;;;5070365;28;20036;-91
2022/08/13 05:53:08;;;;;;;7.80;3.67;;;18.20;99.90;;;;;;5053736;28;20059;-91
2022/08/13 05:55:38;;;;;;;10.13;3.50;;;18.30;99.90;;;;;;5069850;28;20075;-90
2022/08/13 05:58:10;;;;;;;9.02;3.80;;;18.30;99.90;;;;;;5070467;28;20040;-91
2022/08/13 06:03:27;;;;;;;8.43;3.60;;;18.40;99.90;;;;;;5069839;28;20405;-91
2022/08/13 06:06:04;;;;;;;;;;;18.40;99.90;;;;;;5054490;28;20409;-91
2022/08/13 06:08:34;;;;;;;7.10;3.38;;;18.50;99.90;;;;;;5053545;28;19918;-91
2022/08/13 06:11:05;;;;;;;8.48;3.50;;;18.50;99.90;;;;;;5070244;28;20040;-91
2022/08/13 06:13:33;;;;;;;7.20;3.30;;;18.60;99.90;;;;;;5053613;28;20045;-91
2022/08/13 06:16:00;;;;;;;7.65;3.33;;;18.70;99.90;;;;;;5053255;28;20190;-91
2022/08/13 06:18:35;;;;;;;8.55;3.30;;;18.80;99.90;;;;;;5070034;28;20043;-91
2022/08/13 06:21:06;;;;;;;8.50;3.33;;;18.90;99.90;;;;;;5069695;28;20033;-91
2022/08/13 06:23:37;;;;;;;7.68;3.20;;;19.00;99.90;;;;;;5069956;28;20036;-91
2022/08/13 06:26:07;;;;;;;8.38;3.38;;;19.10;99.90;;;;;;5052869;28;20436;-91
2022/08/13 06:28:34;;;;;;;8.95;3.20;;;19.20;99.90;;;;;;5052988;28;20044;-91
2022/08/13 06:31:05;;;;;;;7.80;3.42;;;19.20;99.90;;;;;;5052630;28;20040;-91
2022/08/13 06:33:34;;;;;;;9.23;3.35;;;19.30;99.90;;;;;;5053529;28;20297;-91
2022/08/13 06:36:06;;;;;;;10.70;3.17;;;19.40;99.90;;;;;;5053228;28;20036;-91
2022/08/13 06:38:35;;;;;;;6.93;3.03;;;19.60;99.90;;;;;;5053150;28;20421;-90
2022/08/13 06:41:04;;;;;;;8.73;3.17;;;19.60;99.90;;;;;;5052693;28;20155;-91
2022/08/13 06:43:32;;;;;;;7.93;2.85;;;19.70;99.90;;;;;;5069761;28;20040;-91
2022/08/13 06:45:59;;;;;;;9.35;2.80;;;19.80;99.90;;;;;;5053158;28;20036;-90
2022/08/13 06:48:26;;;;;;;7.32;2.83;;;19.90;99.90;;;;;;5052798;28;20062;-91
2022/08/13 06:50:53;;;;;;;6.35;2.85;;;20.00;99.90;;;;;;5069609;28;20046;-90
2022/08/13 06:53:18;;;;;;;7.13;2.60;;;20.10;99.90;;;;;;5069539;28;20044;-91
2022/08/13 06:55:48;;;;;;;9.75;2.67;;;20.20;99.90;;;;;;5069546;28;20048;-91
2022/08/13 06:58:14;;;;;;;6.50;2.63;;;20.30;99.90;;;;;;5069461;28;20036;-90
2022/08/13 07:00:41;;;;;;;8.02;2.88;;;20.40;99.90;;;;;;5052570;28;20078;-90
2022/08/13 07:03:07;;;;;;;8.95;2.42;;;20.50;99.90;;;;;;5052676;28;20047;-91
2022/08/13 07:05:41;;;;;;;7.20;2.55;;;20.60;99.90;;;;;;5069385;28;20123;-90
2022/08/13 07:08:13;;;;;;;8.57;2.72;;;20.70;99.90;;;;;;5072108;28;20040;-90
2022/08/13 07:10:43;;;;;;;6.00;2.40;;;20.80;99.90;;;;;;5074212;28;20040;-90
2022/08/13 07:13:09;;;;;;;8.23;2.25;;;20.90;99.20;;;;;;5073297;28;20036;-91
2022/08/13 07:15:36;;;;;;;6.90;2.38;;;21.10;98.80;;;;;;5056920;28;20058;-91
2022/08/13 07:18:03;;;;;;;6.45;1.98;;;21.10;98.40;;;;;;5056677;28;20044;-91
2022/08/13 07:20:30;;;;;;;8.32;2.28;;;21.30;97.40;;;;;;5066898;28;20033;-91
2022/08/13 07:22:57;;;;;;;8.30;2.13;;;21.40;98.50;;;;;;5071161;28;20037;-91
2022/08/13 07:25:25;;;;;;;6.40;2.38;;;21.50;98.00;;;;;;5046268;28;20036;-91
2022/08/13 07:27:51;;;;;;;7.03;2.00;;;21.60;97.60;;;;;;5060818;28;20033;-92
2022/08/13 07:30:19;;;;;;;7.28;1.98;;;21.70;97.70;;;;;;5061358;28;20047;-91
2022/08/13 07:32:44;;;;;;;8.77;2.00;;;21.80;97.30;;;;;;5037515;28;20473;-90
2022/08/13 07:35:11;;;;;;;4.95;1.85;;;21.90;96.50;;;;;;5042762;28;20501;-90
2022/08/13 07:37:39;;;;;;;5.50;1.80;;;22.00;95.70;;;;;;5054458;28;20037;-91
2022/08/13 07:40:08;;;;;;;7.40;2.08;;;22.10;94.70;;;;;;5036439;28;20071;-91
2022/08/13 07:42:39;;;;;;;8.82;2.20;;;22.20;94.80;;;;;;5052787;28;20508;-92
2022/08/13 07:45:06;;;;;;;7.72;1.92;;;22.30;94.70;;;;;;5053109;28;20041;-90
2022/08/13 07:47:33;;;;;;;11.32;2.15;;;22.40;93.20;;;;;;5036240;28;20037;-91
2022/08/13 07:50:01;;;;;;;5.82;1.95;;;22.50;92.90;;;;;;5036219;28;20041;-91
2022/08/13 07:52:30;;;;;;;5.13;1.90;;;22.60;92.60;;;;;;5036103;28;20045;-91
2022/08/13 07:54:58;;;;;;;6.20;1.90;;;22.70;92.10;;;;;;5052991;28;20051;-91
2022/08/13 07:57:27;;;;;;;8.18;1.80;;;22.90;91.20;;;;;;5053022;28;20045;-92
2022/08/13 07:59:55;;;;;;;4.90;1.88;;;23.00;88.10;;;;;;5053910;28;20080;-91
2022/08/13 08:02:22;;;;;;;7.65;1.95;;;23.10;83.70;;;;;;5051836;28;20397;-91
2022/08/13 08:04:48;;;;;;;5.05;2.00;;;23.30;83.30;;;;;;5052859;28;20037;-91
2022/08/13 08:07:14;;;;;;;7.18;2.00;;;23.40;83.10;;;;;;5052901;28;20044;-91
2022/08/13 08:09:40;;;;;;;7.57;1.70;;;23.40;84.60;;;;;;5035508;28;20513;-91
2022/08/13 08:14:50;;;;;;;6.78;2.20;;;23.60;80.10;;;;;;5052260;28;20581;-91
2022/08/13 08:17:17;;;;;;;6.22;2.05;;;23.80;79.50;;;;;;5071072;28;20383;-92
2022/08/13 08:19:47;;;;;;;7.45;1.83;;;23.90;79.40;;;;;;5071712;28;20428;-91
2022/08/13 08:22:15;;;;;;;6.70;2.40;;;24.00;80.70;;;;;;5071964;28;20044;-91
2022/08/13 08:24:48;;;;;;;8.13;2.40;;;24.10;80.10;;;;;;5072373;28;20082;-91
2022/08/13 08:27:16;;;;;;;7.13;1.90;;;24.20;80.80;;;;;;5072291;28;20055;-92
2022/08/13 08:29:44;;;;;;;7.20;2.08;;;24.30;78.10;;;;;;5072224;28;20044;-91
2022/08/13 08:32:12;;;;;;;6.05;1.83;;;24.40;78.80;;;;;;5071834;28;20118;-91
2022/08/13 08:34:39;;;;;;;6.60;1.67;;;24.50;79.60;;;;;;5071839;28;20044;-91
2022/08/13 08:37:05;;;;;;;8.13;1.90;;;24.60;75.30;;;;;;5054828;28;20045;-92
2022/08/13 08:42:38;;;;;;;6.65;2.05;;;24.80;72.60;;;;;;5050537;28;20045;-91
2022/08/13 08:45:12;;;;;;;6.78;1.65;;;24.90;72.90;;;;;;5033761;28;20079;-92
2022/08/13 08:47:37;;;;;;;7.43;1.90;;;25.00;72.90;;;;;;5035285;28;20045;-91
2022/08/13 08:50:05;;;;;;;7.47;2.40;;;25.10;70.80;;;;;;5051376;28;20148;-91
2022/08/13 08:55:16;;;;;;;5.80;1.80;;;25.30;69.40;;;;;;5052112;28;20041;-91
2022/08/13 08:57:46;;;;;;;6.63;2.03;;;25.40;70.00;;;;;;5035382;28;20045;-91
2022/08/13 09:00:15;;;;;;;6.43;1.60;;;25.50;68.50;;;;;;5051238;28;20049;-91
2022/08/13 09:02:42;;;;;;;6.07;1.60;;;25.70;67.30;;;;;;5050763;28;20053;-91
2022/08/13 09:05:14;;;;;;;5.95;1.70;;;25.70;66.80;;;;;;5051825;28;20032;-91
2022/08/13 09:07:41;;;;;;;4.22;1.70;;;25.90;64.60;;;;;;5035056;28;20041;-91
2022/08/13 09:10:09;;;;;;;5.22;1.80;;;25.90;62.50;;;;;;5051839;28;20447;-91
2022/08/13 09:12:40;;;;;;;4.93;1.88;;;26.10;62.40;;;;;;5034440;28;20053;-91
2022/08/13 09:15:06;;;;;;;11.15;4.65;;;26.10;62.70;;;;;;5051518;28;20037;-92
2022/08/13 09:17:33;;;;;;;4.85;1.73;;;26.20;62.30;;;;;;5051534;28;20092;-92
2022/08/13 09:19:59;;;;;;;6.93;1.80;;;26.30;60.60;;;;;;5051274;28;20120;-91
2022/08/13 09:22:24;;;;;;;5.18;1.55;;;26.40;61.20;;;;;;5034440;28;20116;-91
2022/08/13 09:24:58;;;;;;;7.00;1.90;;;26.50;60.00;;;;;;5034448;28;20086;-91
2022/08/13 09:27:26;;;;;;;3.00;1.35;;;26.60;60.20;;;;;;5034858;28;20044;-91
2022/08/13 09:29:52;;;;;;;6.28;2.10;;;26.70;59.80;;;;;;5051998;28;20127;-91
2022/08/13 09:32:17;;;;;;;7.72;1.70;;;26.80;59.10;;;;;;5050010;28;20125;-92
2022/08/13 09:34:44;;;;;;;6.03;1.98;;;26.90;57.90;;;;;;5051092;28;20044;-91
2022/08/13 09:37:12;;;;;;;3.70;1.60;;;27.00;56.80;;;;;;5051021;28;20120;-91
2022/08/13 09:39:53;;;;;;;3.83;1.38;;;27.10;56.40;;;;;;5034412;28;20063;-91
2022/08/13 09:42:27;;;;;;;3.80;1.70;;;27.20;54.20;;;;;;5050267;28;20495;-92
2022/08/13 09:44:58;;;;;;;4.78;1.60;;;27.30;54.10;;;;;;5067124;28;20489;-92
2022/08/13 09:47:24;;;;;;;7.35;1.70;;;27.40;55.30;;;;;;5070568;28;20041;-91
2022/08/13 09:49:50;;;;;;;5.82;1.60;;;27.50;54.90;;;;;;5054282;28;20106;-92
2022/08/13 09:52:16;;;;;;;4.63;1.60;;;27.50;54.30;;;;;;5053543;28;20478;-91
2022/08/13 09:54:43;;;;;;;5.90;1.50;;;27.60;54.50;;;;;;5070540;28;20047;-91
2022/08/13 09:57:09;;;;;;;6.35;1.73;;;27.70;53.70;;;;;;5070665;28;20049;-91
2022/08/13 09:59:35;;;;;;;4.90;1.50;;;27.70;53.60;;;;;;5070465;28;20070;-92
2022/08/13 10:02:09;;;;;;;7.65;1.98;;;27.80;53.50;;;;;;5070153;28;20130;-91
2022/08/13 10:04:39;;;;;;;4.40;1.50;;;27.90;53.60;;;;;;5066684;28;20044;-92
2022/08/13 10:07:08;;;;;;;3.92;1.40;;;27.90;54.30;;;;;;5070364;28;20036;-93
2022/08/13 10:09:34;;;;;;;5.32;1.60;;;28.10;53.60;;;;;;5070523;28;20036;-92
2022/08/13 10:12:05;;;;;;;5.00;1.80;;;28.10;52.70;;;;;;5053544;28;20048;-92
2022/08/13 10:14:32;;;;;;;5.47;1.75;;;28.20;53.90;;;;;;5070196;28;20047;-92
2022/08/13 10:16:58;;;;;;;5.68;1.58;;;28.30;53.80;;;;;;5070486;28;20036;-92
2022/08/13 10:19:24;;;;;;;5.15;1.60;;;28.50;51.80;;;;;;5052072;28;20119;-92
2022/08/13 10:21:50;;;;;;;6.60;1.90;;;28.50;51.10;;;;;;5033296;28;20487;-92
2022/08/13 10:24:15;;;;;;;4.75;1.45;;;28.60;50.90;;;;;;5033818;28;20055;-93
2022/08/13 10:26:41;;;;;;;5.13;1.60;;;28.70;51.30;;;;;;5050131;28;20036;-92
2022/08/13 10:29:08;;;;;;;4.45;1.50;;;28.80;50.80;;;;;;5049799;28;20144;-92
2022/08/13 10:31:34;;;;;;;6.88;1.45;;;28.80;50.00;;;;;;5049991;28;20131;-91
2022/08/13 10:34:00;;;;;;;3.33;1.30;;;28.90;49.80;;;;;;5050049;28;20037;-92
2022/08/13 10:36:27;;;;;;;6.47;1.85;;;29.00;49.40;;;;;;5050139;28;20052;-92
2022/08/13 10:38:54;;;;;;;5.80;1.65;;;29.00;48.70;;;;;;5033626;28;20041;-92
2022/08/13 10:41:20;;;;;;;5.90;1.63;;;29.00;48.90;;;;;;5032612;28;20554;-92
2022/08/13 10:43:45;;;;;;;6.10;1.63;;;29.10;47.60;;;;;;5049218;28;20124;-92
2022/08/13 10:46:16;;;;;;;5.07;1.83;;;29.20;47.90;;;;;;5049720;28;20036;-93
2022/08/13 10:48:43;;;;;;;7.20;2.03;;;29.20;47.40;;;;;;5049608;28;20037;-92
2022/08/13 10:51:09;;;;;;;5.70;2.15;;;29.30;46.40;;;;;;5049235;28;20037;-91
2022/08/13 10:56:19;;;;;;;3.83;1.40;;;29.40;47.40;;;;;;5049568;28;20084;-92
2022/08/13 10:58:45;;;;;;;5.32;1.50;;;29.50;46.50;;;;;;5033370;28;20073;-92
2022/08/13 11:01:11;;;;;;;5.15;1.60;;;29.50;47.10;;;;;;5049649;28;20032;-92
2022/08/13 11:03:37;;;;;;;6.00;2.70;;;29.60;46.90;;;;;;5049839;28;20056;-91
2022/08/13 11:06:06;;;;;;;4.45;1.63;;;29.70;46.70;;;;;;5051022;28;20033;-92
2022/08/13 11:08:36;;;;;;;5.60;1.73;;;29.80;46.80;;;;;;5049603;28;20044;-92
2022/08/13 11:11:03;;;;;;;4.25;1.45;;;29.90;45.90;;;;;;5049541;28;20076;-91
2022/08/13 11:13:31;;;;;;;5.55;1.60;;;29.90;44.30;;;;;;5033143;28;20044;-91
2022/08/13 11:15:58;;;;;;;5.07;1.60;;;30.00;44.30;;;;;;5032833;28;20780;-92
2022/08/13 11:18:24;;;;;;;4.53;1.50;;;30.10;45.40;;;;;;5049808;28;20037;-91
2022/08/13 11:21:23;;;;;;;4.18;1.50;;;30.20;44.20;;;;;;5032993;28;20099;-91
2022/08/13 11:23:41;;;;;;;3.75;1.42;;;30.20;43.30;;;;;;5047572;28;20057;-92
2022/08/13 11:26:07;;;;;;;4.90;1.67;;;30.30;44.50;;;;;;5049465;28;20513;-92
2022/08/13 11:28:32;;;;;;;5.35;1.58;;;30.40;44.70;;;;;;5049586;28;20079;-91
2022/08/13 11:30:58;;;;;;;4.90;1.30;;;30.40;44.10;;;;;;5049643;28;20045;-92
2022/08/13 11:33:25;;;;;;;3.80;1.40;;;30.50;42.60;;;;;;5049401;28;20047;-91
2022/08/13 11:35:54;;;;;;;4.10;1.55;;;30.60;42.60;;;;;;5049646;28;20033;-92
2022/08/13 11:38:22;;;;;;;4.75;1.38;;;30.70;43.00;;;;;;5049276;28;20517;-91
2022/08/13 11:40:50;;;;;;;5.28;1.88;;;30.80;42.00;;;;;;5032477;28;20029;-92
2022/08/13 11:43:16;;;;;;;2.65;1.33;;;30.80;42.50;;;;;;5049361;28;20048;-91
2022/08/13 11:45:42;;;;;;;4.25;1.60;;;30.90;43.20;;;;;;5049500;28;20041;-92
2022/08/13 11:48:08;;;;;;;4.82;1.52;;;30.90;42.20;;;;;;5049234;28;20041;-92
2022/08/13 11:50:34;;;;;;;6.50;2.33;;;31.00;42.10;;;;;;5049075;28;20044;-92
2022/08/13 11:53:00;;;;;;;5.88;2.10;;;31.10;42.70;;;;;;5032055;28;20044;-92
2022/08/13 11:55:26;;;;;;;4.57;1.60;;;31.20;42.90;;;;;;5051399;28;20041;-92
2022/08/13 11:57:59;;;;;;;6.57;1.80;;;31.30;41.20;;;;;;5036292;28;20045;-91
2022/08/13 12:00:26;;;;;;;3.63;1.40;;;31.50;40.80;;;;;;5036261;28;20560;-91
2022/08/13 12:02:52;;;;;;;3.15;1.23;;;31.50;41.50;;;;;;5035658;28;20509;-92
2022/08/13 12:05:18;;;;;;;4.60;1.60;;;31.60;40.70;;;;;;5036329;28;20502;-92
2022/08/13 12:07:44;;;;;;;4.07;1.45;;;31.70;40.20;;;;;;5035593;28;20043;-91
2022/08/13 12:10:10;;;;;;;3.72;1.48;;;31.80;40.80;;;;;;5036136;28;20051;-91
2022/08/13 12:12:36;;;;;;;4.45;1.73;;;31.80;41.00;;;;;;5053690;28;20033;-91
2022/08/13 12:15:02;;;;;;;4.35;1.50;;;31.90;41.00;;;;;;5036062;28;20099;-92
2022/08/13 12:17:28;;;;;;;4.75;1.67;;;32.00;40.00;;;;;;5053163;28;20044;-92
2022/08/13 12:19:54;;;;;;;3.72;1.30;;;32.10;40.90;;;;;;5073369;28;20076;-92
2022/08/13 12:22:19;;;;;;;3.53;1.58;;;32.20;40.20;;;;;;5071765;28;20072;-91
2022/08/13 12:24:46;;;;;;;3.92;1.20;;;32.30;39.80;;;;;;5072572;28;20037;-92
2022/08/13 12:27:11;;;;;;;4.68;1.73;;;32.50;39.90;;;;;;5072587;28;20074;-92
2022/08/13 12:29:37;;;;;;;5.40;1.85;;;32.50;39.60;;;;;;5055860;28;20045;-92
2022/08/13 12:32:03;;;;;;;4.28;1.50;;;32.70;40.20;;;;;;5055677;28;20459;-92
2022/08/13 12:34:28;;;;;;;3.95;1.52;;;32.80;39.70;;;;;;5068932;28;20112;-92
2022/08/13 12:36:54;;;;;;;5.78;1.60;;;32.80;39.80;;;;;;5049431;28;20452;-93
2022/08/13 12:39:19;;;;;;;4.15;1.50;;;32.80;40.30;;;;;;5072138;28;20879;-93
2022/08/13 12:41:45;;;;;;;4.30;1.70;;;32.90;39.90;;;;;;5055168;28;20032;-92
2022/08/13 12:44:12;;;;;;;7.30;1.83;;;32.90;40.20;;;;;;5055274;28;20086;-92
2022/08/13 12:46:37;;;;;;;4.28;2.22;;;33.10;41.30;;;;;;5055931;28;20037;-92
2022/08/13 12:49:07;;;;;;;5.03;1.60;;;33.10;40.50;;;;;;5071902;28;20490;-92
2022/08/13 12:51:33;;;;;;;4.93;1.70;;;33.20;40.00;;;;;;5071584;28;20102;-92
2022/08/13 12:53:58;;;;;;;4.45;1.70;;;33.30;38.30;;;;;;5055476;28;20144;-91
2022/08/13 12:56:24;;;;;;;5.70;1.65;;;33.30;38.80;;;;;;5055169;28;20563;-92
2022/08/13 12:58:50;;;;;;;4.30;1.70;;;33.40;38.80;;;;;;5071842;28;20448;-92
2022/08/13 13:01:15;;;;;;;4.07;1.60;;;33.50;38.20;;;;;;5054763;28;20039;-92
2022/08/13 13:03:41;;;;;;;6.97;1.80;;;33.60;38.20;;;;;;5071512;28;20043;-92
2022/08/13 13:06:06;;;;;;;4.95;1.67;;;33.60;38.70;;;;;;5071245;28;20371;-92
2022/08/13 13:08:32;;;;;;;5.22;1.67;;;33.90;39.60;;;;;;5066811;28;20028;-92
2022/08/13 13:11:08;;;;;;;4.55;1.60;;;34.00;38.30;;;;;;5058984;28;20414;-92